Terminal Aerodrome Forecast
Issued by NWS Des Moines, IA

Home | Current Version | Previous Version | Text Only | Print | Product List | Glossary On
Versions: 1 2 3 4 5 6 7 8 9 10 11 12 13 14 15 16 17 18 19 20 21 22 23 24 25 26 27 28 29 30 31 32
000
FTUS43 KDMX 011131
TAFDSM
TAF
KDSM 011131Z 0112/0212 36005KT P6SM SCT009 OVC016
      TEMPO 0112/0113 6SM -DZ BKN009
     FM011900 02005KT P6SM SCT018 OVC028
     FM020600 VRB03KT 3SM BR BKN012=

USA.gov is the U.S. government's official web portal to all federal, state and local government web resources and services.